Terminal Aerodrome Forecast
Issued by NWS

Home | Current Version | Previous Version | Text Only | Print | Product List | Glossary On
Versions: 1 2 3 4 5 6 7 8 9 10 11 12 13 14 15 16 17
000
FTAK31 PAJN 202300
TAFAJN
TAF
PAJN 202335Z 2100/2124 12012KT P6SM SCT060 SCT080
     FM210400 10003KT P6SM SCT070
     FM211600 12010KT P6SM SCT040 BKN070
     FM212100 14008KT P6SM VCSH BKN050=

USA.gov is the U.S. government's official web portal to all federal, state and local government web resources and services.